sensor_id;sensor_type;location;lat;lon;timestamp;P1;durP1;ratioP1;P2;durP2;ratioP2
4043;SDS011;2036;51.578;7.108;2022-08-19T00:01:30;567.57;;;520.50;;
4043;SDS011;2036;51.578;7.108;2022-08-19T00:03:57;570.53;;;523.77;;
4043;SDS011;2036;51.578;7.108;2022-08-19T00:06:27;630.50;;;579.37;;
4043;SDS011;2036;51.578;7.108;2022-08-19T00:08:54;605.83;;;555.33;;
4043;SDS011;2036;51.578;7.108;2022-08-19T00:11:21;587.67;;;539.73;;
4043;SDS011;2036;51.578;7.108;2022-08-19T00:13:47;605.23;;;556.17;;
4043;SDS011;2036;51.578;7.108;2022-08-19T00:16:15;582.20;;;527.07;;
4043;SDS011;2036;51.578;7.108;2022-08-19T00:18:44;598.00;;;543.20;;
4043;SDS011;2036;51.578;7.108;2022-08-19T00:21:10;627.93;;;568.23;;
4043;SDS011;2036;51.578;7.108;2022-08-19T00:23:36;652.03;;;590.20;;
4043;SDS011;2036;51.578;7.108;2022-08-19T00:26:03;648.00;;;597.33;;
4043;SDS011;2036;51.578;7.108;2022-08-19T00:28:30;532.47;;;480.27;;
4043;SDS011;2036;51.578;7.108;2022-08-19T00:30:56;663.20;;;612.90;;
4043;SDS011;2036;51.578;7.108;2022-08-19T00:33:22;617.10;;;568.13;;
4043;SDS011;2036;51.578;7.108;2022-08-19T00:35:48;678.70;;;626.60;;
4043;SDS011;2036;51.578;7.108;2022-08-19T00:38:14;670.10;;;618.63;;
4043;SDS011;2036;51.578;7.108;2022-08-19T00:40:42;685.00;;;632.20;;
4043;SDS011;2036;51.578;7.108;2022-08-19T00:43:11;635.23;;;584.87;;
4043;SDS011;2036;51.578;7.108;2022-08-19T00:45:38;615.27;;;565.33;;
4043;SDS011;2036;51.578;7.108;2022-08-19T00:48:07;690.93;;;636.00;;
4043;SDS011;2036;51.578;7.108;2022-08-19T00:50:34;655.20;;;604.47;;
4043;SDS011;2036;51.578;7.108;2022-08-19T00:53:00;672.60;;;618.70;;
4043;SDS011;2036;51.578;7.108;2022-08-19T00:55:29;651.30;;;601.20;;
4043;SDS011;2036;51.578;7.108;2022-08-19T00:58:02;663.57;;;612.90;;
4043;SDS011;2036;51.578;7.108;2022-08-19T01:00:34;635.17;;;583.50;;
4043;SDS011;2036;51.578;7.108;2022-08-19T01:03:09;694.67;;;640.93;;
4043;SDS011;2036;51.578;7.108;2022-08-19T01:05:41;666.30;;;612.20;;
4043;SDS011;2036;51.578;7.108;2022-08-19T01:08:09;699.00;;;646.10;;
4043;SDS011;2036;51.578;7.108;2022-08-19T01:10:37;673.00;;;619.27;;
4043;SDS011;2036;51.578;7.108;2022-08-19T01:13:11;718.80;;;664.70;;
4043;SDS011;2036;51.578;7.108;2022-08-19T01:15:48;725.77;;;671.37;;
4043;SDS011;2036;51.578;7.108;2022-08-19T01:18:19;710.27;;;652.70;;
4043;SDS011;2036;51.578;7.108;2022-08-19T01:20:46;547.97;;;494.80;;
4043;SDS011;2036;51.578;7.108;2022-08-19T01:23:13;657.40;;;601.60;;
4043;SDS011;2036;51.578;7.108;2022-08-19T01:28:17;712.13;;;657.03;;
4043;SDS011;2036;51.578;7.108;2022-08-19T01:30:47;712.60;;;657.93;;
4043;SDS011;2036;51.578;7.108;2022-08-19T01:33:14;700.00;;;645.43;;
4043;SDS011;2036;51.578;7.108;2022-08-19T01:35:41;733.40;;;672.03;;
4043;SDS011;2036;51.578;7.108;2022-08-19T01:38:08;744.97;;;688.67;;
4043;SDS011;2036;51.578;7.108;2022-08-19T01:40:48;743.57;;;688.03;;
4043;SDS011;2036;51.578;7.108;2022-08-19T01:43:14;731.17;;;675.17;;
4043;SDS011;2036;51.578;7.108;2022-08-19T01:45:40;717.83;;;662.23;;
4043;SDS011;2036;51.578;7.108;2022-08-19T01:48:06;726.40;;;671.27;;
4043;SDS011;2036;51.578;7.108;2022-08-19T01:50:33;680.00;;;627.80;;
4043;SDS011;2036;51.578;7.108;2022-08-19T01:53:00;600.83;;;545.27;;
4043;SDS011;2036;51.578;7.108;2022-08-19T01:55:29;690.30;;;630.47;;
4043;SDS011;2036;51.578;7.108;2022-08-19T01:57:57;669.87;;;607.13;;
4043;SDS011;2036;51.578;7.108;2022-08-19T02:00:28;685.83;;;626.33;;
4043;SDS011;2036;51.578;7.108;2022-08-19T02:02:56;638.27;;;580.00;;
4043;SDS011;2036;51.578;7.108;2022-08-19T02:05:22;723.93;;;666.03;;
4043;SDS011;2036;51.578;7.108;2022-08-19T02:07:48;729.73;;;673.30;;
4043;SDS011;2036;51.578;7.108;2022-08-19T02:10:17;730.20;;;673.57;;
4043;SDS011;2036;51.578;7.108;2022-08-19T02:12:46;752.30;;;696.13;;
4043;SDS011;2036;51.578;7.108;2022-08-19T02:15:14;784.53;;;724.10;;
4043;SDS011;2036;51.578;7.108;2022-08-19T02:17:41;790.30;;;729.13;;
4043;SDS011;2036;51.578;7.108;2022-08-19T02:20:08;755.50;;;697.77;;
4043;SDS011;2036;51.578;7.108;2022-08-19T02:22:35;755.00;;;695.03;;
4043;SDS011;2036;51.578;7.108;2022-08-19T02:25:01;784.30;;;722.13;;
4043;SDS011;2036;51.578;7.108;2022-08-19T02:27:29;748.53;;;690.50;;
4043;SDS011;2036;51.578;7.108;2022-08-19T02:29:55;751.10;;;692.07;;
4043;SDS011;2036;51.578;7.108;2022-08-19T02:32:21;793.73;;;731.60;;
4043;SDS011;2036;51.578;7.108;2022-08-19T02:34:47;758.50;;;701.03;;
4043;SDS011;2036;51.578;7.108;2022-08-19T02:37:14;772.97;;;714.33;;
4043;SDS011;2036;51.578;7.108;2022-08-19T02:39:58;772.47;;;712.97;;
4043;SDS011;2036;51.578;7.108;2022-08-19T02:42:24;788.57;;;728.83;;
4043;SDS011;2036;51.578;7.108;2022-08-19T02:44:50;767.37;;;707.77;;
4043;SDS011;2036;51.578;7.108;2022-08-19T02:47:20;772.73;;;711.30;;
4043;SDS011;2036;51.578;7.108;2022-08-19T02:49:46;762.90;;;703.37;;
4043;SDS011;2036;51.578;7.108;2022-08-19T02:52:14;780.83;;;718.67;;
4043;SDS011;2036;51.578;7.108;2022-08-19T02:54:40;793.20;;;731.37;;
4043;SDS011;2036;51.578;7.108;2022-08-19T02:57:07;795.87;;;732.67;;
4043;SDS011;2036;51.578;7.108;2022-08-19T02:59:33;728.63;;;668.67;;
4043;SDS011;2036;51.578;7.108;2022-08-19T03:01:59;689.93;;;627.07;;
4043;SDS011;2036;51.578;7.108;2022-08-19T03:04:24;740.13;;;681.20;;
4043;SDS011;2036;51.578;7.108;2022-08-19T03:06:51;818.00;;;754.10;;
4043;SDS011;2036;51.578;7.108;2022-08-19T03:09:17;808.57;;;744.27;;
4043;SDS011;2036;51.578;7.108;2022-08-19T03:11:45;778.33;;;718.70;;
4043;SDS011;2036;51.578;7.108;2022-08-19T03:14:11;820.63;;;758.87;;
4043;SDS011;2036;51.578;7.108;2022-08-19T03:16:46;774.90;;;715.97;;
4043;SDS011;2036;51.578;7.108;2022-08-19T03:19:15;779.13;;;718.73;;
4043;SDS011;2036;51.578;7.108;2022-08-19T03:21:43;775.30;;;715.17;;
4043;SDS011;2036;51.578;7.108;2022-08-19T03:24:10;821.33;;;759.90;;
4043;SDS011;2036;51.578;7.108;2022-08-19T03:26:39;806.03;;;744.20;;
4043;SDS011;2036;51.578;7.108;2022-08-19T03:29:08;790.43;;;728.93;;
4043;SDS011;2036;51.578;7.108;2022-08-19T03:31:36;772.03;;;709.60;;
4043;SDS011;2036;51.578;7.108;2022-08-19T03:34:04;774.07;;;713.27;;
4043;SDS011;2036;51.578;7.108;2022-08-19T03:36:30;774.10;;;714.50;;
4043;SDS011;2036;51.578;7.108;2022-08-19T03:38:57;774.17;;;713.87;;
4043;SDS011;2036;51.578;7.108;2022-08-19T03:41:26;766.80;;;705.93;;
4043;SDS011;2036;51.578;7.108;2022-08-19T03:43:56;765.53;;;704.93;;
4043;SDS011;2036;51.578;7.108;2022-08-19T03:46:25;774.67;;;714.27;;
4043;SDS011;2036;51.578;7.108;2022-08-19T03:48:55;767.17;;;706.43;;
4043;SDS011;2036;51.578;7.108;2022-08-19T03:51:27;807.50;;;747.07;;
4043;SDS011;2036;51.578;7.108;2022-08-19T03:54:00;779.07;;;719.30;;
4043;SDS011;2036;51.578;7.108;2022-08-19T03:56:28;770.10;;;711.03;;
4043;SDS011;2036;51.578;7.108;2022-08-19T03:58:55;762.67;;;702.83;;
4043;SDS011;2036;51.578;7.108;2022-08-19T04:01:25;784.27;;;722.13;;
4043;SDS011;2036;51.578;7.108;2022-08-19T04:03:54;813.03;;;749.67;;
4043;SDS011;2036;51.578;7.108;2022-08-19T04:06:23;819.87;;;755.23;;
4043;SDS011;2036;51.578;7.108;2022-08-19T04:08:53;805.90;;;742.87;;
4043;SDS011;2036;51.578;7.108;2022-08-19T04:11:21;796.90;;;735.50;;
4043;SDS011;2036;51.578;7.108;2022-08-19T04:13:51;798.30;;;737.10;;
4043;SDS011;2036;51.578;7.108;2022-08-19T04:16:19;780.93;;;719.77;;
4043;SDS011;2036;51.578;7.108;2022-08-19T04:18:47;773.83;;;712.73;;
4043;SDS011;2036;51.578;7.108;2022-08-19T04:21:21;786.47;;;724.87;;
4043;SDS011;2036;51.578;7.108;2022-08-19T04:23:51;763.30;;;705.00;;
4043;SDS011;2036;51.578;7.108;2022-08-19T04:26:19;784.40;;;723.17;;
4043;SDS011;2036;51.578;7.108;2022-08-19T04:28:50;848.40;;;778.07;;
4043;SDS011;2036;51.578;7.108;2022-08-19T04:31:18;703.77;;;639.80;;
4043;SDS011;2036;51.578;7.108;2022-08-19T04:33:56;775.70;;;710.20;;
4043;SDS011;2036;51.578;7.108;2022-08-19T04:36:25;814.17;;;750.03;;
4043;SDS011;2036;51.578;7.108;2022-08-19T04:38:55;747.47;;;687.77;;
4043;SDS011;2036;51.578;7.108;2022-08-19T04:41:23;821.60;;;754.37;;
4043;SDS011;2036;51.578;7.108;2022-08-19T04:44:08;799.40;;;735.90;;
4043;SDS011;2036;51.578;7.108;2022-08-19T04:46:35;793.40;;;730.27;;
4043;SDS011;2036;51.578;7.108;2022-08-19T04:49:02;827.60;;;763.33;;
4043;SDS011;2036;51.578;7.108;2022-08-19T04:51:30;794.93;;;735.47;;
4043;SDS011;2036;51.578;7.108;2022-08-19T04:53:57;792.20;;;729.93;;
4043;SDS011;2036;51.578;7.108;2022-08-19T04:56:25;787.30;;;725.80;;
4043;SDS011;2036;51.578;7.108;2022-08-19T04:58:52;776.43;;;716.00;;
4043;SDS011;2036;51.578;7.108;2022-08-19T05:01:20;747.70;;;689.00;;
4043;SDS011;2036;51.578;7.108;2022-08-19T05:03:53;721.63;;;659.63;;
4043;SDS011;2036;51.578;7.108;2022-08-19T05:06:21;657.33;;;594.67;;
4043;SDS011;2036;51.578;7.108;2022-08-19T05:08:48;719.77;;;662.70;;
4043;SDS011;2036;51.578;7.108;2022-08-19T05:11:16;717.20;;;659.97;;
4043;SDS011;2036;51.578;7.108;2022-08-19T05:13:46;712.20;;;656.03;;
4043;SDS011;2036;51.578;7.108;2022-08-19T05:16:17;733.30;;;677.23;;
4043;SDS011;2036;51.578;7.108;2022-08-19T05:18:45;747.90;;;691.00;;
4043;SDS011;2036;51.578;7.108;2022-08-19T05:21:31;726.17;;;669.17;;
4043;SDS011;2036;51.578;7.108;2022-08-19T05:24:17;648.27;;;594.63;;
4043;SDS011;2036;51.578;7.108;2022-08-19T05:26:48;703.80;;;649.07;;
4043;SDS011;2036;51.578;7.108;2022-08-19T05:29:18;667.57;;;614.37;;
4043;SDS011;2036;51.578;7.108;2022-08-19T05:31:46;661.97;;;610.63;;
4043;SDS011;2036;51.578;7.108;2022-08-19T05:34:17;665.20;;;614.60;;
4043;SDS011;2036;51.578;7.108;2022-08-19T05:36:47;660.20;;;608.67;;
4043;SDS011;2036;51.578;7.108;2022-08-19T05:39:16;648.03;;;596.90;;
4043;SDS011;2036;51.578;7.108;2022-08-19T05:41:45;589.13;;;541.27;;
4043;SDS011;2036;51.578;7.108;2022-08-19T05:44:17;623.40;;;573.67;;
4043;SDS011;2036;51.578;7.108;2022-08-19T05:46:46;550.10;;;504.10;;
4043;SDS011;2036;51.578;7.108;2022-08-19T05:49:13;531.50;;;487.37;;
4043;SDS011;2036;51.578;7.108;2022-08-19T05:51:41;514.00;;;470.27;;
4043;SDS011;2036;51.578;7.108;2022-08-19T05:54:08;558.03;;;513.77;;
4043;SDS011;2036;51.578;7.108;2022-08-19T05:56:34;534.93;;;490.93;;
4043;SDS011;2036;51.578;7.108;2022-08-19T05:59:03;474.33;;;434.13;;
4043;SDS011;2036;51.578;7.108;2022-08-19T06:01:34;451.80;;;412.43;;
4043;SDS011;2036;51.578;7.108;2022-08-19T06:04:02;447.73;;;408.40;;
4043;SDS011;2036;51.578;7.108;2022-08-19T06:06:29;550.07;;;504.27;;
4043;SDS011;2036;51.578;7.108;2022-08-19T06:08:55;483.70;;;443.70;;
4043;SDS011;2036;51.578;7.108;2022-08-19T06:11:25;432.63;;;395.13;;
4043;SDS011;2036;51.578;7.108;2022-08-19T06:14:02;376.40;;;342.07;;
4043;SDS011;2036;51.578;7.108;2022-08-19T06:16:33;477.73;;;435.87;;
4043;SDS011;2036;51.578;7.108;2022-08-19T06:19:03;482.90;;;442.23;;
4043;SDS011;2036;51.578;7.108;2022-08-19T06:21:32;374.50;;;338.63;;
4043;SDS011;2036;51.578;7.108;2022-08-19T06:23:58;396.97;;;359.93;;
4043;SDS011;2036;51.578;7.108;2022-08-19T06:26:25;385.90;;;350.17;;
4043;SDS011;2036;51.578;7.108;2022-08-19T06:28:51;351.93;;;316.43;;
4043;SDS011;2036;51.578;7.108;2022-08-19T06:31:22;366.10;;;330.17;;
4043;SDS011;2036;51.578;7.108;2022-08-19T06:33:52;360.33;;;325.53;;
4043;SDS011;2036;51.578;7.108;2022-08-19T06:38:56;351.83;;;316.93;;
4043;SDS011;2036;51.578;7.108;2022-08-19T06:41:24;358.03;;;322.47;;
4043;SDS011;2036;51.578;7.108;2022-08-19T06:43:51;294.07;;;263.03;;
4043;SDS011;2036;51.578;7.108;2022-08-19T06:46:18;372.43;;;336.60;;
4043;SDS011;2036;51.578;7.108;2022-08-19T06:48:44;415.10;;;376.33;;
4043;SDS011;2036;51.578;7.108;2022-08-19T06:51:13;391.80;;;354.83;;
4043;SDS011;2036;51.578;7.108;2022-08-19T06:53:43;357.63;;;321.27;;
4043;SDS011;2036;51.578;7.108;2022-08-19T06:56:15;355.93;;;320.67;;
4043;SDS011;2036;51.578;7.108;2022-08-19T06:58:56;289.83;;;246.53;;
4043;SDS011;2036;51.578;7.108;2022-08-19T07:01:23;297.83;;;266.03;;
4043;SDS011;2036;51.578;7.108;2022-08-19T07:03:49;363.93;;;328.87;;
4043;SDS011;2036;51.578;7.108;2022-08-19T07:06:16;344.13;;;309.43;;
4043;SDS011;2036;51.578;7.108;2022-08-19T07:08:45;293.73;;;260.50;;
4043;SDS011;2036;51.578;7.108;2022-08-19T07:11:14;319.63;;;285.87;;
4043;SDS011;2036;51.578;7.108;2022-08-19T07:13:43;268.07;;;234.97;;
4043;SDS011;2036;51.578;7.108;2022-08-19T07:16:11;319.70;;;287.90;;
4043;SDS011;2036;51.578;7.108;2022-08-19T07:18:41;320.60;;;286.53;;
4043;SDS011;2036;51.578;7.108;2022-08-19T07:21:10;340.60;;;306.50;;
4043;SDS011;2036;51.578;7.108;2022-08-19T07:24:07;438.90;;;397.67;;
4043;SDS011;2036;51.578;7.108;2022-08-19T07:26:37;399.23;;;361.07;;
4043;SDS011;2036;51.578;7.108;2022-08-19T07:29:06;356.77;;;320.83;;
4043;SDS011;2036;51.578;7.108;2022-08-19T07:31:33;383.13;;;346.40;;
4043;SDS011;2036;51.578;7.108;2022-08-19T07:34:02;385.53;;;348.20;;
4043;SDS011;2036;51.578;7.108;2022-08-19T07:36:35;357.07;;;321.20;;
4043;SDS011;2036;51.578;7.108;2022-08-19T07:39:06;411.53;;;371.83;;
4043;SDS011;2036;51.578;7.108;2022-08-19T07:41:36;302.77;;;271.43;;
4043;SDS011;2036;51.578;7.108;2022-08-19T07:44:04;228.93;;;179.63;;
4043;SDS011;2036;51.578;7.108;2022-08-19T07:46:33;279.17;;;229.17;;
4043;SDS011;2036;51.578;7.108;2022-08-19T07:49:02;221.53;;;184.17;;
4043;SDS011;2036;51.578;7.108;2022-08-19T07:51:30;239.90;;;211.53;;
4043;SDS011;2036;51.578;7.108;2022-08-19T07:53:56;345.30;;;310.97;;
4043;SDS011;2036;51.578;7.108;2022-08-19T07:56:22;226.63;;;199.53;;
4043;SDS011;2036;51.578;7.108;2022-08-19T07:58:50;321.83;;;289.67;;
4043;SDS011;2036;51.578;7.108;2022-08-19T08:01:18;317.10;;;289.47;;
4043;SDS011;2036;51.578;7.108;2022-08-19T08:03:49;222.73;;;199.13;;
4043;SDS011;2036;51.578;7.108;2022-08-19T08:06:36;283.67;;;257.10;;
4043;SDS011;2036;51.578;7.108;2022-08-19T08:09:27;304.77;;;278.07;;
4043;SDS011;2036;51.578;7.108;2022-08-19T08:12:05;287.33;;;260.60;;
4043;SDS011;2036;51.578;7.108;2022-08-19T08:14:41;241.57;;;217.33;;
4043;SDS011;2036;51.578;7.108;2022-08-19T08:17:09;380.63;;;349.03;;
4043;SDS011;2036;51.578;7.108;2022-08-19T08:19:36;183.70;;;126.17;;
4043;SDS011;2036;51.578;7.108;2022-08-19T08:22:03;188.10;;;130.17;;
4043;SDS011;2036;51.578;7.108;2022-08-19T08:24:31;294.23;;;265.60;;
4043;SDS011;2036;51.578;7.108;2022-08-19T08:26:59;215.90;;;180.90;;
4043;SDS011;2036;51.578;7.108;2022-08-19T08:29:28;422.57;;;386.57;;
4043;SDS011;2036;51.578;7.108;2022-08-19T08:31:55;537.13;;;496.17;;
4043;SDS011;2036;51.578;7.108;2022-08-19T08:34:22;197.73;;;145.77;;
4043;SDS011;2036;51.578;7.108;2022-08-19T08:36:49;561.10;;;517.93;;
4043;SDS011;2036;51.578;7.108;2022-08-19T08:39:17;213.77;;;174.83;;
4043;SDS011;2036;51.578;7.108;2022-08-19T08:41:59;552.03;;;509.03;;
4043;SDS011;2036;51.578;7.108;2022-08-19T08:47:31;151.07;;;86.47;;
4043;SDS011;2036;51.578;7.108;2022-08-19T08:50:15;165.17;;;84.23;;
4043;SDS011;2036;51.578;7.108;2022-08-19T08:53:07;267.40;;;239.67;;
4043;SDS011;2036;51.578;7.108;2022-08-19T08:55:43;163.97;;;95.47;;
4043;SDS011;2036;51.578;7.108;2022-08-19T08:58:15;197.67;;;142.70;;
4043;SDS011;2036;51.578;7.108;2022-08-19T09:00:56;161.00;;;86.33;;
4043;SDS011;2036;51.578;7.108;2022-08-19T09:03:23;156.10;;;78.97;;
4043;SDS011;2036;51.578;7.108;2022-08-19T09:11:18;169.57;;;128.33;;
4043;SDS011;2036;51.578;7.108;2022-08-19T09:16:59;191.00;;;170.00;;
4043;SDS011;2036;51.578;7.108;2022-08-19T09:19:28;198.13;;;172.63;;
4043;SDS011;2036;51.578;7.108;2022-08-19T09:21:55;187.63;;;166.83;;
4043;SDS011;2036;51.578;7.108;2022-08-19T09:24:21;226.90;;;204.33;;
4043;SDS011;2036;51.578;7.108;2022-08-19T09:26:47;235.93;;;211.43;;
4043;SDS011;2036;51.578;7.108;2022-08-19T09:29:13;164.80;;;89.07;;
4043;SDS011;2036;51.578;7.108;2022-08-19T09:31:39;170.37;;;104.57;;
4043;SDS011;2036;51.578;7.108;2022-08-19T09:34:05;195.37;;;173.43;;
4043;SDS011;2036;51.578;7.108;2022-08-19T09:36:31;213.87;;;190.93;;
4043;SDS011;2036;51.578;7.108;2022-08-19T09:38:58;219.47;;;196.80;;
4043;SDS011;2036;51.578;7.108;2022-08-19T09:41:27;163.53;;;87.20;;
4043;SDS011;2036;51.578;7.108;2022-08-19T09:43:55;225.63;;;203.00;;
4043;SDS011;2036;51.578;7.108;2022-08-19T09:46:26;226.47;;;203.77;;
4043;SDS011;2036;51.578;7.108;2022-08-19T09:48:53;219.03;;;196.57;;
4043;SDS011;2036;51.578;7.108;2022-08-19T09:51:23;250.60;;;226.37;;
4043;SDS011;2036;51.578;7.108;2022-08-19T09:53:53;259.87;;;236.00;;
4043;SDS011;2036;51.578;7.108;2022-08-19T09:56:20;260.50;;;236.70;;
4043;SDS011;2036;51.578;7.108;2022-08-19T09:58:47;253.93;;;229.77;;
4043;SDS011;2036;51.578;7.108;2022-08-19T10:01:18;222.40;;;199.40;;
4043;SDS011;2036;51.578;7.108;2022-08-19T10:03:50;200.83;;;179.50;;
4043;SDS011;2036;51.578;7.108;2022-08-19T10:06:19;190.83;;;168.93;;
4043;SDS011;2036;51.578;7.108;2022-08-19T10:08:47;167.37;;;128.20;;
4043;SDS011;2036;51.578;7.108;2022-08-19T10:11:13;163.93;;;112.33;;
4043;SDS011;2036;51.578;7.108;2022-08-19T10:13:41;162.27;;;114.57;;
4043;SDS011;2036;51.578;7.108;2022-08-19T10:16:13;156.67;;;95.70;;
4043;SDS011;2036;51.578;7.108;2022-08-19T10:18:44;153.60;;;85.50;;
4043;SDS011;2036;51.578;7.108;2022-08-19T10:21:12;158.13;;;95.27;;
4043;SDS011;2036;51.578;7.108;2022-08-19T10:23:49;147.90;;;79.93;;
4043;SDS011;2036;51.578;7.108;2022-08-19T10:26:19;148.87;;;90.37;;
4043;SDS011;2036;51.578;7.108;2022-08-19T10:28:51;156.53;;;90.30;;
4043;SDS011;2036;51.578;7.108;2022-08-19T10:31:20;151.53;;;81.33;;
4043;SDS011;2036;51.578;7.108;2022-08-19T10:33:51;153.97;;;90.47;;
4043;SDS011;2036;51.578;7.108;2022-08-19T10:36:22;150.93;;;84.03;;
4043;SDS011;2036;51.578;7.108;2022-08-19T10:38:59;169.80;;;117.73;;
4043;SDS011;2036;51.578;7.108;2022-08-19T10:41:31;155.30;;;103.90;;
4043;SDS011;2036;51.578;7.108;2022-08-19T10:44:04;145.73;;;78.37;;
4043;SDS011;2036;51.578;7.108;2022-08-19T10:46:35;154.97;;;87.03;;
4043;SDS011;2036;51.578;7.108;2022-08-19T10:49:06;155.70;;;105.30;;
4043;SDS011;2036;51.578;7.108;2022-08-19T10:51:34;149.70;;;83.93;;
4043;SDS011;2036;51.578;7.108;2022-08-19T10:54:19;158.47;;;104.93;;
4043;SDS011;2036;51.578;7.108;2022-08-19T10:56:45;160.47;;;112.93;;
4043;SDS011;2036;51.578;7.108;2022-08-19T10:59:27;158.17;;;106.03;;
4043;SDS011;2036;51.578;7.108;2022-08-19T11:01:58;163.60;;;110.90;;
4043;SDS011;2036;51.578;7.108;2022-08-19T11:04:26;163.90;;;115.73;;
4043;SDS011;2036;51.578;7.108;2022-08-19T11:06:52;167.53;;;119.07;;
4043;SDS011;2036;51.578;7.108;2022-08-19T11:09:19;182.17;;;142.77;;
4043;SDS011;2036;51.578;7.108;2022-08-19T11:11:49;186.90;;;165.13;;
4043;SDS011;2036;51.578;7.108;2022-08-19T11:14:18;181.93;;;161.90;;
4043;SDS011;2036;51.578;7.108;2022-08-19T11:16:46;266.33;;;241.67;;
4043;SDS011;2036;51.578;7.108;2022-08-19T11:19:13;231.17;;;208.63;;
4043;SDS011;2036;51.578;7.108;2022-08-19T11:21:44;171.70;;;133.50;;
4043;SDS011;2036;51.578;7.108;2022-08-19T11:24:15;164.30;;;115.90;;
4043;SDS011;2036;51.578;7.108;2022-08-19T11:26:46;163.07;;;115.70;;
4043;SDS011;2036;51.578;7.108;2022-08-19T11:29:15;167.00;;;125.47;;
4043;SDS011;2036;51.578;7.108;2022-08-19T11:31:45;175.13;;;134.07;;
4043;SDS011;2036;51.578;7.108;2022-08-19T11:34:19;167.40;;;121.40;;
4043;SDS011;2036;51.578;7.108;2022-08-19T11:36:52;167.27;;;122.63;;
4043;SDS011;2036;51.578;7.108;2022-08-19T11:39:21;175.37;;;148.60;;
4043;SDS011;2036;51.578;7.108;2022-08-19T11:41:48;177.67;;;135.00;;
4043;SDS011;2036;51.578;7.108;2022-08-19T11:44:14;166.50;;;118.20;;
4043;SDS011;2036;51.578;7.108;2022-08-19T11:46:40;175.40;;;145.90;;
4043;SDS011;2036;51.578;7.108;2022-08-19T11:49:12;183.97;;;161.23;;
4043;SDS011;2036;51.578;7.108;2022-08-19T11:51:40;206.47;;;185.10;;
4043;SDS011;2036;51.578;7.108;2022-08-19T11:54:08;201.40;;;179.43;;
4043;SDS011;2036;51.578;7.108;2022-08-19T11:56:36;191.87;;;171.40;;
4043;SDS011;2036;51.578;7.108;2022-08-19T11:59:03;217.53;;;196.13;;
4043;SDS011;2036;51.578;7.108;2022-08-19T12:01:30;189.17;;;164.73;;
4043;SDS011;2036;51.578;7.108;2022-08-19T12:03:56;211.53;;;190.30;;
4043;SDS011;2036;51.578;7.108;2022-08-19T12:06:26;189.00;;;168.33;;
4043;SDS011;2036;51.578;7.108;2022-08-19T12:08:58;191.63;;;171.37;;
4043;SDS011;2036;51.578;7.108;2022-08-19T12:11:27;206.60;;;185.97;;
4043;SDS011;2036;51.578;7.108;2022-08-19T12:13:53;192.03;;;171.33;;
4043;SDS011;2036;51.578;7.108;2022-08-19T12:16:21;194.17;;;173.67;;
4043;SDS011;2036;51.578;7.108;2022-08-19T12:18:50;200.50;;;179.60;;
4043;SDS011;2036;51.578;7.108;2022-08-19T12:21:17;188.53;;;168.53;;
4043;SDS011;2036;51.578;7.108;2022-08-19T12:23:53;187.97;;;168.17;;
4043;SDS011;2036;51.578;7.108;2022-08-19T12:26:21;164.80;;;129.90;;
4043;SDS011;2036;51.578;7.108;2022-08-19T12:28:49;160.97;;;126.10;;
4043;SDS011;2036;51.578;7.108;2022-08-19T12:31:15;208.60;;;187.60;;
4043;SDS011;2036;51.578;7.108;2022-08-19T12:33:42;179.30;;;160.03;;
4043;SDS011;2036;51.578;7.108;2022-08-19T12:36:09;166.90;;;137.47;;
4043;SDS011;2036;51.578;7.108;2022-08-19T12:38:38;165.47;;;131.30;;
4043;SDS011;2036;51.578;7.108;2022-08-19T12:41:05;174.93;;;145.57;;
4043;SDS011;2036;51.578;7.108;2022-08-19T12:43:33;187.57;;;167.27;;
4043;SDS011;2036;51.578;7.108;2022-08-19T12:46:00;186.10;;;166.50;;
4043;SDS011;2036;51.578;7.108;2022-08-19T12:48:29;199.97;;;179.97;;
4043;SDS011;2036;51.578;7.108;2022-08-19T12:50:55;184.53;;;159.73;;
4043;SDS011;2036;51.578;7.108;2022-08-19T12:53:21;183.10;;;162.17;;
4043;SDS011;2036;51.578;7.108;2022-08-19T12:55:53;190.07;;;170.23;;
4043;SDS011;2036;51.578;7.108;2022-08-19T12:58:22;189.07;;;169.03;;
4043;SDS011;2036;51.578;7.108;2022-08-19T13:00:48;179.03;;;159.57;;
4043;SDS011;2036;51.578;7.108;2022-08-19T13:03:14;171.70;;;149.73;;
4043;SDS011;2036;51.578;7.108;2022-08-19T13:05:40;178.60;;;159.23;;
4043;SDS011;2036;51.578;7.108;2022-08-19T13:08:07;166.37;;;142.50;;
4043;SDS011;2036;51.578;7.108;2022-08-19T13:10:33;181.20;;;162.00;;
4043;SDS011;2036;51.578;7.108;2022-08-19T13:13:05;197.17;;;177.23;;
4043;SDS011;2036;51.578;7.108;2022-08-19T13:15:35;197.43;;;177.33;;
4043;SDS011;2036;51.578;7.108;2022-08-19T13:18:06;191.57;;;171.73;;
4043;SDS011;2036;51.578;7.108;2022-08-19T13:20:34;164.33;;;146.20;;
4043;SDS011;2036;51.578;7.108;2022-08-19T13:23:02;174.37;;;153.33;;
4043;SDS011;2036;51.578;7.108;2022-08-19T13:25:29;163.20;;;120.83;;
4043;SDS011;2036;51.578;7.108;2022-08-19T13:27:55;153.93;;;106.40;;
4043;SDS011;2036;51.578;7.108;2022-08-19T13:30:21;154.47;;;117.87;;
4043;SDS011;2036;51.578;7.108;2022-08-19T13:33:07;162.70;;;122.43;;
4043;SDS011;2036;51.578;7.108;2022-08-19T13:35:56;161.97;;;132.07;;
4043;SDS011;2036;51.578;7.108;2022-08-19T13:38:25;179.50;;;160.07;;
4043;SDS011;2036;51.578;7.108;2022-08-19T13:40:52;174.03;;;154.93;;
4043;SDS011;2036;51.578;7.108;2022-08-19T13:43:21;167.40;;;149.03;;
4043;SDS011;2036;51.578;7.108;2022-08-19T13:45:51;159.23;;;130.70;;
4043;SDS011;2036;51.578;7.108;2022-08-19T13:48:20;162.10;;;136.80;;
4043;SDS011;2036;51.578;7.108;2022-08-19T13:50:47;178.23;;;159.30;;
4043;SDS011;2036;51.578;7.108;2022-08-19T13:53:13;167.73;;;147.93;;
4043;SDS011;2036;51.578;7.108;2022-08-19T13:55:40;162.30;;;134.73;;
4043;SDS011;2036;51.578;7.108;2022-08-19T13:58:09;161.57;;;131.03;;
4043;SDS011;2036;51.578;7.108;2022-08-19T14:00:39;170.00;;;151.47;;
4043;SDS011;2036;51.578;7.108;2022-08-19T14:03:08;183.67;;;164.43;;
4043;SDS011;2036;51.578;7.108;2022-08-19T14:05:36;175.10;;;155.77;;
4043;SDS011;2036;51.578;7.108;2022-08-19T14:08:02;179.40;;;159.03;;
4043;SDS011;2036;51.578;7.108;2022-08-19T14:10:28;176.70;;;157.90;;
4043;SDS011;2036;51.578;7.108;2022-08-19T14:12:56;175.17;;;156.37;;
4043;SDS011;2036;51.578;7.108;2022-08-19T14:15:25;190.97;;;169.67;;
4043;SDS011;2036;51.578;7.108;2022-08-19T14:17:52;169.03;;;150.33;;
4043;SDS011;2036;51.578;7.108;2022-08-19T14:20:19;166.60;;;146.17;;
4043;SDS011;2036;51.578;7.108;2022-08-19T14:22:45;177.00;;;158.10;;
4043;SDS011;2036;51.578;7.108;2022-08-19T14:25:14;177.27;;;158.07;;
4043;SDS011;2036;51.578;7.108;2022-08-19T14:27:43;165.60;;;145.70;;
4043;SDS011;2036;51.578;7.108;2022-08-19T14:30:10;164.17;;;137.70;;
4043;SDS011;2036;51.578;7.108;2022-08-19T14:32:40;159.67;;;129.80;;
4043;SDS011;2036;51.578;7.108;2022-08-19T14:35:08;159.93;;;128.83;;
4043;SDS011;2036;51.578;7.108;2022-08-19T14:37:37;159.00;;;124.10;;
4043;SDS011;2036;51.578;7.108;2022-08-19T14:40:04;155.47;;;119.67;;
4043;SDS011;2036;51.578;7.108;2022-08-19T14:42:30;152.33;;;114.07;;
4043;SDS011;2036;51.578;7.108;2022-08-19T14:44:59;150.23;;;108.77;;
4043;SDS011;2036;51.578;7.108;2022-08-19T14:47:26;153.90;;;110.37;;
4043;SDS011;2036;51.578;7.108;2022-08-19T14:49:52;148.97;;;102.90;;
4043;SDS011;2036;51.578;7.108;2022-08-19T14:52:19;150.43;;;104.47;;